Time;durP1;ratioP1;P1;durP2;ratioP2;P2;SDS_P1;SDS_P2;PMS_P1;PMS_P2;Temp;Humidity;BMP_temperature;BMP_pressure;BME280_temperature;BME280_humidity;BME280_pressure;Samples;Min_cycle;Max_cycle;Signal;HPM_P1;HPM_P2
2024/03/01 00:00:00;;;;;;;0.65;0.65;;;;;;;1.88;100.00;98231.22;5041655;28;20047;-58
2024/03/01 00:02:27;;;;;;;0.60;0.60;;;;;;;1.60;100.00;98241.28;5039105;28;20559;-58
2024/03/01 00:04:54;;;;;;;0.70;0.70;;;;;;;1.59;100.00;98237.84;5035632;28;20472;-58
2024/03/01 00:07:23;;;;;;;0.60;0.60;;;;;;;1.62;100.00;98226.03;5036666;28;20129;-58
2024/03/01 00:09:50;;;;;;;0.50;0.50;;;;;;;1.90;100.00;98229.19;5034078;28;20046;-58
2024/03/01 00:12:17;;;;;;;0.60;0.60;;;;;;;1.83;100.00;98228.41;5038187;28;20072;-58
2024/03/01 00:14:44;;;;;;;0.68;0.68;;;;;;;1.94;100.00;98227.72;5038371;28;20059;-58
2024/03/01 00:17:11;;;;;;;0.60;0.60;;;;;;;1.90;100.00;98228.38;5033442;28;20037;-58
2024/03/01 00:19:38;;;;;;;0.47;0.47;;;;;;;1.72;100.00;98229.06;5038667;28;20045;-58
2024/03/01 00:22:05;;;;;;;0.43;0.43;;;;;;;1.46;100.00;98222.84;5032144;28;20132;-59
2024/03/01 00:24:34;;;;;;;0.60;0.60;;;;;;;1.28;100.00;98228.81;5034535;28;20048;-58
2024/03/01 00:27:01;;;;;;;0.60;0.60;;;;;;;0.96;100.00;98227.84;5040705;28;20728;-59
2024/03/01 00:29:28;;;;;;;0.60;0.60;;;;;;;1.11;100.00;98224.97;5033587;28;20846;-57
2024/03/01 00:31:55;;;;;;;0.50;0.50;;;;;;;1.25;100.00;98215.22;5036774;28;20060;-59
2024/03/01 00:34:22;;;;;;;0.60;0.60;;;;;;;1.29;100.00;98226.97;5034336;28;20045;-59
2024/03/01 00:36:49;;;;;;;0.60;0.60;;;;;;;1.64;100.00;98221.38;5032763;28;20136;-59
2024/03/01 00:39:16;;;;;;;0.60;0.60;;;;;;;1.70;100.00;98209.97;5033598;28;20329;-59
2024/03/01 00:41:44;;;;;;;0.70;0.70;;;;;;;1.53;100.00;98204.34;5031778;28;20103;-59
2024/03/01 00:44:12;;;;;;;0.60;0.60;;;;;;;1.69;100.00;98200.41;5038387;28;20049;-59
2024/03/01 00:46:39;;;;;;;0.70;0.70;;;;;;;1.69;100.00;98195.94;5028492;28;20136;-58
2024/03/01 00:49:06;;;;;;;0.70;0.70;;;;;;;1.85;100.00;98204.44;5026631;28;20160;-57
2024/03/01 00:51:33;;;;;;;0.70;0.70;;;;;;;1.55;100.00;98210.25;5038136;28;20158;-58
2024/03/01 00:54:00;;;;;;;0.50;0.50;;;;;;;1.49;100.00;98201.31;5020137;28;20044;-58
2024/03/01 00:56:27;;;;;;;0.70;0.70;;;;;;;1.60;100.00;98201.66;5038010;28;20515;-58
2024/03/01 00:58:55;;;;;;;0.68;0.68;;;;;;;1.78;100.00;98199.16;5030197;28;20087;-59
2024/03/01 01:01:22;;;;;;;0.60;0.60;;;;;;;1.75;100.00;98194.31;5036745;28;20051;-59
2024/03/01 01:03:51;;;;;;;0.80;0.80;;;;;;;1.65;100.00;98189.47;5032056;28;20088;-58
2024/03/01 01:06:19;;;;;;;0.60;0.60;;;;;;;1.98;100.00;98187.69;5036590;28;20044;-58
2024/03/01 01:08:46;;;;;;;0.68;0.68;;;;;;;2.18;100.00;98187.56;5030290;28;20130;-59
2024/03/01 01:11:13;;;;;;;0.60;0.60;;;;;;;2.03;100.00;98188.66;5035935;28;20144;-58
2024/03/01 01:13:40;;;;;;;0.60;0.60;;;;;;;2.01;100.00;98187.25;5034658;28;20053;-58
2024/03/01 01:16:09;;;;;;;0.60;0.60;;;;;;;1.70;100.00;98178.28;5033829;28;20134;-58
2024/03/01 01:18:36;;;;;;;0.63;0.63;;;;;;;1.48;100.00;98175.94;5035273;28;20613;-58
2024/03/01 01:21:03;;;;;;;0.60;0.60;;;;;;;1.45;100.00;98172.91;5032954;28;20136;-58
2024/03/01 01:23:30;;;;;;;0.70;0.70;;;;;;;1.64;100.00;98171.19;5036988;28;21004;-57
2024/03/01 01:25:57;;;;;;;0.60;0.60;;;;;;;1.77;100.00;98168.47;5036827;28;20130;-58
2024/03/01 01:28:24;;;;;;;0.55;0.55;;;;;;;1.85;100.00;98178.81;5031655;28;20033;-58
2024/03/01 01:30:51;;;;;;;0.60;0.60;;;;;;;1.70;100.00;98170.34;5033364;28;20047;-59
2024/03/01 01:33:20;;;;;;;0.57;0.57;;;;;;;1.65;100.00;98172.81;5038571;28;20056;-58
2024/03/01 01:35:47;;;;;;;0.60;0.60;;;;;;;1.51;100.00;98177.34;5034156;28;20127;-59
2024/03/01 01:38:14;;;;;;;0.57;0.57;;;;;;;1.77;100.00;98168.47;5039307;28;20068;-59
2024/03/01 01:40:41;;;;;;;0.50;0.50;;;;;;;1.67;100.00;98165.47;5040793;28;20055;-57
2024/03/01 01:43:09;;;;;;;0.60;0.60;;;;;;;1.68;100.00;98169.75;5034307;28;20088;-57
2024/03/01 01:45:39;;;;;;;0.60;0.60;;;;;;;1.83;100.00;98162.34;5035477;28;20049;-57
2024/03/01 01:48:07;;;;;;;0.70;0.70;;;;;;;2.12;100.00;98163.59;5031975;28;20037;-57
2024/03/01 01:50:36;;;;;;;0.50;0.50;;;;;;;2.45;100.00;98162.53;5032636;28;20056;-59
2024/03/01 01:53:03;;;;;;;0.60;0.60;;;;;;;2.38;100.00;98157.28;5029836;28;20053;-57
2024/03/01 01:55:30;;;;;;;0.50;0.50;;;;;;;2.38;100.00;98154.66;5038226;28;20053;-58
2024/03/01 01:58:01;;;;;;;0.60;0.60;;;;;;;2.30;100.00;98148.84;5038729;28;20053;-59
2024/03/01 02:00:30;;;;;;;0.55;0.55;;;;;;;2.43;100.00;98151.38;5034147;28;20665;-59
2024/03/01 02:02:58;;;;;;;0.57;0.57;;;;;;;2.35;100.00;98155.09;5029142;28;20128;-59
2024/03/01 02:05:25;;;;;;;0.63;0.63;;;;;;;2.23;100.00;98156.00;5035515;28;20044;-59
2024/03/01 02:07:53;;;;;;;0.52;0.52;;;;;;;2.38;100.00;98149.38;5031901;28;20052;-59
2024/03/01 02:10:22;;;;;;;0.50;0.50;;;;;;;2.35;100.00;98141.88;5034513;28;20041;-58
2024/03/01 02:12:56;;;;;;;0.47;0.47;;;;;;;2.27;100.00;98131.56;5040852;28;20055;-58
2024/03/01 02:15:24;;;;;;;0.60;0.60;;;;;;;2.68;100.00;98137.31;5034176;28;20462;-58
2024/03/01 02:17:51;;;;;;;0.50;0.50;;;;;;;2.68;100.00;98138.13;5024882;28;20049;-58
2024/03/01 02:20:19;;;;;;;0.55;0.55;;;;;;;2.89;100.00;98125.50;5033721;28;20043;-60
2024/03/01 02:22:49;;;;;;;0.50;0.50;;;;;;;2.62;100.00;98135.53;5028594;28;20053;-59
2024/03/01 02:25:18;;;;;;;0.50;0.50;;;;;;;2.52;100.00;98138.66;5030831;28;20072;-60
2024/03/01 02:27:47;;;;;;;0.40;0.40;;;;;;;2.47;100.00;98133.22;5033379;28;20059;-58
2024/03/01 02:30:14;;;;;;;0.43;0.43;;;;;;;2.46;100.00;98136.91;5038246;28;20124;-58
2024/03/01 02:32:41;;;;;;;0.50;0.50;;;;;;;2.56;100.00;98131.91;5029970;28;20069;-58
2024/03/01 02:35:08;;;;;;;0.57;0.57;;;;;;;2.92;100.00;98125.88;5033003;28;20049;-57
2024/03/01 02:37:36;;;;;;;0.50;0.50;;;;;;;3.21;100.00;98112.91;5027778;28;20583;-58
2024/03/01 02:40:04;;;;;;;0.40;0.40;;;;;;;3.34;100.00;98106.66;5028238;28;20496;-58
2024/03/01 02:42:33;;;;;;;0.60;0.60;;;;;;;3.34;100.00;98107.44;5034942;28;20267;-58
2024/03/01 02:45:02;;;;;;;0.50;0.50;;;;;;;3.40;100.00;98103.13;5030789;28;20062;-58
2024/03/01 02:47:30;;;;;;;0.50;0.50;;;;;;;3.27;100.00;98100.63;5028101;28;20148;-58
2024/03/01 02:49:57;;;;;;;0.50;0.50;;;;;;;3.35;100.00;98103.00;5030268;28;20057;-58
2024/03/01 02:52:24;;;;;;;0.50;0.50;;;;;;;3.24;100.00;98108.00;5029474;28;20136;-58
2024/03/01 02:54:52;;;;;;;0.60;0.60;;;;;;;3.02;100.00;98105.00;5034709;28;20048;-58
2024/03/01 02:57:19;;;;;;;0.40;0.40;;;;;;;3.08;100.00;98102.50;5039820;28;20128;-59
2024/03/01 02:59:47;;;;;;;0.50;0.50;;;;;;;3.27;100.00;98095.31;5037964;28;20080;-58
2024/03/01 03:02:15;;;;;;;0.50;0.50;;;;;;;3.12;100.00;98088.59;5043104;28;20053;-58
2024/03/01 03:04:42;;;;;;;0.40;0.40;;;;;;;3.03;100.00;98101.31;5036405;28;20578;-58
2024/03/01 03:07:09;;;;;;;0.55;0.55;;;;;;;2.88;100.00;98094.78;5040102;28;20051;-58
2024/03/01 03:09:36;;;;;;;0.47;0.47;;;;;;;2.79;100.00;98099.53;5033867;28;20045;-58
2024/03/01 03:12:03;;;;;;;0.50;0.50;;;;;;;2.74;100.00;98108.13;5038259;28;20053;-58
2024/03/01 03:14:30;;;;;;;0.50;0.50;;;;;;;2.89;100.00;98104.31;5040226;28;20064;-58
2024/03/01 03:16:59;;;;;;;0.50;0.50;;;;;;;2.70;100.00;98099.03;5034828;28;20041;-58
2024/03/01 03:19:26;;;;;;;0.60;0.60;;;;;;;2.75;100.00;98104.47;5037829;28;20068;-57
2024/03/01 03:21:53;;;;;;;0.50;0.50;;;;;;;2.75;100.00;98101.03;5040217;28;20123;-58
2024/03/01 03:24:20;;;;;;;0.40;0.40;;;;;;;2.83;100.00;98099.91;5038939;28;20128;-58
2024/03/01 03:26:47;;;;;;;0.40;0.40;;;;;;;2.86;100.00;98088.88;5035674;28;20061;-58
2024/03/01 03:29:14;;;;;;;0.50;0.50;;;;;;;2.93;100.00;98100.22;5035235;28;20852;-58
2024/03/01 03:31:42;;;;;;;0.50;0.50;;;;;;;2.78;100.00;98098.72;5043926;28;20135;-58
2024/03/01 03:34:10;;;;;;;0.50;0.50;;;;;;;2.69;100.00;98094.75;5042372;28;20391;-59
2024/03/01 03:36:37;;;;;;;0.50;0.50;;;;;;;2.69;100.00;98091.28;5034463;28;20059;-58
2024/03/01 03:39:06;;;;;;;0.52;0.52;;;;;;;2.70;100.00;98096.38;5035166;28;20046;-57
2024/03/01 03:41:34;;;;;;;0.50;0.50;;;;;;;2.69;100.00;98093.94;5040499;28;20076;-59
2024/03/01 03:44:01;;;;;;;0.60;0.60;;;;;;;2.67;100.00;98101.28;5034803;28;20740;-57
2024/03/01 03:46:29;;;;;;;0.60;0.60;;;;;;;2.57;100.00;98094.69;5034675;28;20041;-57
2024/03/01 03:48:56;;;;;;;0.40;0.40;;;;;;;2.51;100.00;98090.25;5031594;28;20053;-58
2024/03/01 03:51:25;;;;;;;0.50;0.50;;;;;;;2.52;100.00;98093.69;5038060;28;20122;-58
2024/03/01 03:53:53;;;;;;;0.40;0.40;;;;;;;2.53;100.00;98090.03;5042299;28;20682;-58
2024/03/01 03:56:19;;;;;;;0.50;0.50;;;;;;;2.63;100.00;98090.34;5036803;28;20056;-58
2024/03/01 03:58:46;;;;;;;0.60;0.60;;;;;;;2.62;100.00;98083.44;5031442;28;20105;-58
2024/03/01 04:01:13;;;;;;;0.50;0.50;;;;;;;2.47;100.00;98090.91;5038450;28;20563;-58
2024/03/01 04:03:40;;;;;;;0.52;0.52;;;;;;;2.44;100.00;98083.41;5038182;28;20399;-57
2024/03/01 04:06:09;;;;;;;0.40;0.40;;;;;;;2.53;100.00;98090.03;5038553;28;20045;-57
2024/03/01 04:08:39;;;;;;;0.50;0.50;;;;;;;2.66;100.00;98100.47;5036154;28;20044;-58
2024/03/01 04:11:06;;;;;;;0.50;0.50;;;;;;;2.72;100.00;98099.63;5034158;28;20459;-58
2024/03/01 04:13:33;;;;;;;0.50;0.50;;;;;;;2.73;100.00;98095.13;5032877;28;21078;-58
2024/03/01 04:16:00;;;;;;;0.50;0.50;;;;;;;2.84;100.00;98088.28;5041156;28;20069;-58
2024/03/01 04:18:28;;;;;;;0.50;0.50;;;;;;;3.45;100.00;98087.38;5035168;28;20040;-58
2024/03/01 04:20:56;;;;;;;0.50;0.50;;;;;;;3.80;100.00;98094.63;5031891;28;20054;-58
2024/03/01 04:23:23;;;;;;;0.50;0.50;;;;;;;4.13;100.00;98103.94;5032700;28;20746;-58
2024/03/01 04:25:52;;;;;;;0.50;0.50;;;;;;;4.27;100.00;98095.53;5040675;28;20077;-58
2024/03/01 04:28:19;;;;;;;0.40;0.40;;;;;;;4.40;100.00;98104.31;5024600;28;20045;-58
2024/03/01 04:30:47;;;;;;;0.50;0.50;;;;;;;4.49;100.00;98101.09;5038747;28;20049;-59
2024/03/01 04:33:14;;;;;;;0.43;0.43;;;;;;;4.46;100.00;98109.50;5039006;28;20045;-58
2024/03/01 04:35:41;;;;;;;0.50;0.50;;;;;;;4.47;100.00;98110.31;5036337;28;20045;-58
2024/03/01 04:38:08;;;;;;;0.40;0.40;;;;;;;4.43;100.00;98104.66;5046930;28;20081;-59
2024/03/01 04:40:36;;;;;;;0.60;0.60;;;;;;;4.57;100.00;98105.25;5034436;28;20053;-58
2024/03/01 04:43:05;;;;;;;0.50;0.50;;;;;;;4.56;100.00;98110.78;5036218;28;20052;-59
2024/03/01 04:45:32;;;;;;;0.45;0.45;;;;;;;4.56;100.00;98105.47;5038827;28;20091;-58
2024/03/01 04:47:59;;;;;;;0.40;0.40;;;;;;;4.54;100.00;98109.16;5032225;28;20052;-58
2024/03/01 04:50:26;;;;;;;0.50;0.50;;;;;;;4.60;100.00;98109.28;5039254;28;20075;-58
2024/03/01 04:52:54;;;;;;;0.40;0.40;;;;;;;4.53;100.00;98115.50;5037608;28;20038;-58
2024/03/01 04:55:21;;;;;;;0.40;0.40;;;;;;;4.52;100.00;98113.09;5039429;28;20068;-58
2024/03/01 04:57:48;;;;;;;0.40;0.40;;;;;;;4.54;100.00;98109.16;5029145;28;20107;-58
2024/03/01 05:00:21;;;;;;;0.50;0.50;;;;;;;4.59;100.00;98107.66;5034527;28;20118;-59
2024/03/01 05:02:49;;;;;;;0.50;0.50;;;;;;;4.57;100.00;98112.38;5041376;28;20450;-58
2024/03/01 05:05:18;;;;;;;0.40;0.40;;;;;;;4.54;100.00;98111.00;5035271;28;21215;-58
2024/03/01 05:07:48;;;;;;;0.50;0.50;;;;;;;4.61;100.00;98113.53;5032259;28;20045;-59
2024/03/01 05:10:21;;;;;;;0.40;0.40;;;;;;;4.71;100.00;98108.44;5034739;28;20048;-59
2024/03/01 05:12:48;;;;;;;0.40;0.40;;;;;;;4.79;100.00;98112.59;5034662;28;20054;-58
2024/03/01 05:15:18;;;;;;;0.50;0.50;;;;;;;4.74;100.00;98127.41;5032537;28;20454;-60
2024/03/01 05:17:46;;;;;;;0.50;0.50;;;;;;;4.69;100.00;98129.09;5038456;28;20049;-59
2024/03/01 05:20:14;;;;;;;0.30;0.30;;;;;;;4.63;100.00;98143.31;5035965;28;20361;-59
2024/03/01 05:22:42;;;;;;;0.50;0.50;;;;;;;4.79;100.00;98139.16;5035490;28;20048;-59
2024/03/01 05:25:15;;;;;;;0.40;0.40;;;;;;;4.88;100.00;98149.19;5032342;28;20495;-60
2024/03/01 05:27:42;;;;;;;0.50;0.50;;;;;;;5.07;100.00;98149.06;5031575;28;20052;-58
2024/03/01 05:30:12;;;;;;;0.50;0.50;;;;;;;5.02;100.00;98154.25;5029503;28;20040;-59
2024/03/01 05:32:43;;;;;;;0.50;0.50;;;;;;;5.06;100.00;98152.75;5034254;28;20546;-58
2024/03/01 05:35:10;;;;;;;0.50;0.50;;;;;;;5.03;100.00;98155.88;5018261;28;20068;-60
2024/03/01 05:37:37;;;;;;;0.40;0.40;;;;;;;4.87;100.00;98158.22;5031103;28;20046;-59
2024/03/01 05:40:05;;;;;;;0.40;0.40;;;;;;;4.96;100.00;98162.09;5029714;28;20796;-60
2024/03/01 05:42:33;;;;;;;0.43;0.43;;;;;;;5.06;100.00;98158.06;5037166;28;20065;-59
2024/03/01 05:45:00;;;;;;;0.47;0.47;;;;;;;5.09;100.00;98149.63;5032123;28;20037;-59
2024/03/01 05:47:27;;;;;;;0.40;0.40;;;;;;;5.19;100.00;98160.47;5033793;28;20064;-59
2024/03/01 05:49:56;;;;;;;0.40;0.40;;;;;;;5.30;100.00;98166.81;5031065;28;20140;-59
2024/03/01 05:52:23;;;;;;;0.45;0.45;;;;;;;5.16;100.00;98156.44;5032161;28;20055;-59
2024/03/01 05:54:50;;;;;;;0.40;0.40;;;;;;;5.15;100.00;98154.03;5025871;28;20037;-58
2024/03/01 05:57:17;;;;;;;0.38;0.38;;;;;;;5.18;100.00;98158.88;5036142;28;20451;-58
2024/03/01 05:59:45;;;;;;;0.40;0.40;;;;;;;5.25;100.00;98154.22;5034093;28;20118;-58
2024/03/01 06:02:12;;;;;;;0.50;0.50;;;;;;;5.31;100.00;98153.28;5038472;28;20051;-59
2024/03/01 06:04:39;;;;;;;0.30;0.30;;;;;;;5.31;100.00;98163.91;5026774;28;20049;-59
2024/03/01 06:07:08;;;;;;;0.40;0.40;;;;;;;5.37;100.00;98168.31;5031147;28;20037;-59
2024/03/01 06:09:35;;;;;;;0.40;0.40;;;;;;;5.38;100.00;98169.91;5028130;28;20045;-60
2024/03/01 06:12:03;;;;;;;0.40;0.40;;;;;;;5.43;100.00;98171.06;5032769;28;20142;-59
2024/03/01 06:14:30;;;;;;;0.40;0.40;;;;;;;5.38;100.00;98177.09;5033575;28;20052;-58
2024/03/01 06:16:58;;;;;;;0.50;0.50;;;;;;;5.36;100.00;98177.31;5034962;28;20120;-60
2024/03/01 06:19:25;;;;;;;0.50;0.50;;;;;;;5.43;100.00;98177.19;5032386;28;20041;-58
2024/03/01 06:21:55;;;;;;;0.40;0.40;;;;;;;5.43;100.00;98171.88;5027327;28;20045;-58
2024/03/01 06:24:23;;;;;;;0.40;0.40;;;;;;;5.45;100.00;98174.31;5031226;28;20049;-58
2024/03/01 06:26:53;;;;;;;0.40;0.40;;;;;;;5.44;100.00;98176.13;5029040;28;20046;-59
2024/03/01 06:29:20;;;;;;;0.50;0.50;;;;;;;5.38;100.00;98172.56;5034345;28;20075;-59
2024/03/01 06:31:47;;;;;;;0.40;0.40;;;;;;;5.53;100.00;98177.38;5032143;28;20052;-59
2024/03/01 06:34:14;;;;;;;0.40;0.40;;;;;;;5.63;100.00;98192.75;5026496;28;20103;-59
2024/03/01 06:36:41;;;;;;;0.40;0.40;;;;;;;5.62;100.00;98191.94;5034630;28;20049;-59
2024/03/01 06:39:09;;;;;;;0.40;0.40;;;;;;;5.72;100.00;98179.91;5033747;28;20041;-59
2024/03/01 06:41:38;;;;;;;0.40;0.40;;;;;;;5.54;100.00;98189.66;5036164;28;20059;-57
2024/03/01 06:44:05;;;;;;;0.40;0.40;;;;;;;5.58;100.00;98195.28;5037734;28;20482;-60
2024/03/01 06:46:32;;;;;;;0.30;0.30;;;;;;;5.58;100.00;98190.78;5035611;28;20098;-58
2024/03/01 06:49:00;;;;;;;0.30;0.30;;;;;;;5.87;100.00;98185.50;5030353;28;20101;-60
2024/03/01 06:51:28;;;;;;;0.30;0.30;;;;;;;5.88;100.00;98188.97;5031244;28;20041;-60
2024/03/01 06:53:55;;;;;;;0.40;0.40;;;;;;;6.07;100.00;98187.75;5037563;28;20047;-59
2024/03/01 06:56:23;;;;;;;0.40;0.40;;;;;;;6.23;100.00;98181.66;5038183;28;20045;-59
2024/03/01 06:58:51;;;;;;;0.50;0.50;;;;;;;6.37;100.00;98181.38;5035452;28;20585;-59
2024/03/01 07:01:18;;;;;;;0.38;0.38;;;;;;;6.46;100.00;98170.09;5031412;28;20045;-59
2024/03/01 07:03:45;;;;;;;0.30;0.30;;;;;;;6.63;100.00;98172.72;5020242;28;20099;-59
2024/03/01 07:06:12;;;;;;;0.32;0.32;;;;;;;6.79;100.00;98163.13;5033874;28;20144;-58
2024/03/01 07:08:40;;;;;;;0.35;0.35;;;;;;;6.76;100.00;98173.44;5031863;28;20136;-59
2024/03/01 07:11:07;;;;;;;0.30;0.30;;;;;;;6.96;100.00;98173.75;5034201;28;20053;-59
2024/03/01 07:13:34;;;;;;;0.30;0.30;;;;;;;6.82;100.00;98177.81;5033730;28;20506;-59
2024/03/01 07:16:02;;;;;;;0.30;0.30;;;;;;;6.70;100.00;98177.91;5029231;28;20042;-59
2024/03/01 07:18:30;;;;;;;0.40;0.40;;;;;;;6.72;100.00;98183.78;5025015;28;20117;-58
2024/03/01 07:20:57;;;;;;;0.30;0.30;;;;;;;6.66;100.00;98184.75;5029469;28;20041;-59
2024/03/01 07:23:24;;;;;;;0.40;0.40;;;;;;;7.03;100.00;98197.56;5030445;28;20053;-59
2024/03/01 07:25:51;;;;;;;0.50;0.50;;;;;;;7.46;100.00;98193.34;5034153;28;20138;-59
2024/03/01 07:28:18;;;;;;;0.43;0.43;;;;;;;8.93;100.00;98189.75;5029668;28;20110;-58
2024/03/01 07:30:46;;;;;;;0.40;0.40;;;;;;;9.71;100.00;98189.91;5033193;28;20053;-58
2024/03/01 07:33:14;;;;;;;0.40;0.40;;;;;;;8.58;100.00;98199.09;5032978;28;20776;-57
2024/03/01 07:35:41;;;;;;;0.30;0.30;;;;;;;8.42;100.00;98196.28;5041458;28;20041;-58
2024/03/01 07:38:11;;;;;;;0.40;0.40;;;;;;;9.24;100.00;98193.44;5030372;28;20068;-59
2024/03/01 07:40:38;;;;;;;0.40;0.40;;;;;;;9.95;100.00;98195.59;5026638;28;20079;-58
2024/03/01 07:43:05;;;;;;;0.40;0.40;;;;;;;10.22;99.52;98186.56;5027050;28;20175;-58
2024/03/01 07:45:33;;;;;;;0.28;0.28;;;;;;;10.66;97.66;98184.22;5033821;28;20096;-59
2024/03/01 07:48:00;;;;;;;0.20;0.20;;;;;;;9.84;100.00;98183.25;5032483;28;20073;-58
2024/03/01 07:50:28;;;;;;;0.20;0.20;;;;;;;9.01;100.00;98203.44;5049550;28;20088;-58
2024/03/01 07:52:56;;;;;;;0.25;0.25;;;;;;;8.67;100.00;98213.59;5031346;28;20450;-58
2024/03/01 07:55:23;;;;;;;0.20;0.20;;;;;;;8.29;100.00;98217.25;5045732;28;20045;-59
2024/03/01 07:57:51;;;;;;;0.28;0.28;;;;;;;8.27;100.00;98214.00;5028304;28;20072;-58
2024/03/01 08:00:19;;;;;;;0.30;0.30;;;;;;;8.11;100.00;98226.38;5033464;28;20128;-58
2024/03/01 08:02:46;;;;;;;0.20;0.20;;;;;;;7.92;100.00;98213.38;5045666;28;20065;-59
2024/03/01 08:05:13;;;;;;;0.30;0.30;;;;;;;7.71;100.00;98222.19;5031263;28;20152;-59
2024/03/01 08:07:42;;;;;;;0.30;0.30;;;;;;;7.82;100.00;98217.78;5030157;28;20057;-59
2024/03/01 08:10:11;;;;;;;0.30;0.30;;;;;;;7.53;100.00;98225.97;5028222;28;20100;-59
2024/03/01 08:12:38;;;;;;;0.30;0.30;;;;;;;7.55;100.00;98230.00;5041564;28;20803;-59
2024/03/01 08:15:08;;;;;;;0.20;0.20;;;;;;;7.66;100.00;98225.63;5029482;28;20045;-58
2024/03/01 08:17:35;;;;;;;0.30;0.30;;;;;;;7.59;100.00;98232.16;5031944;28;20046;-59
2024/03/01 08:20:04;;;;;;;0.30;0.30;;;;;;;7.67;100.00;98224.56;5032509;28;20128;-59
2024/03/01 08:22:31;;;;;;;0.30;0.30;;;;;;;7.35;100.00;98224.41;5039475;28;20057;-58
2024/03/01 08:24:59;;;;;;;0.28;0.28;;;;;;;7.46;100.00;98231.50;5036091;28;20056;-59
2024/03/01 08:27:27;;;;;;;0.40;0.40;;;;;;;7.51;100.00;98228.91;5035190;28;20557;-59
2024/03/01 08:29:55;;;;;;;0.30;0.30;;;;;;;7.40;100.00;98235.13;5033174;28;20044;-58
2024/03/01 08:32:28;;;;;;;0.40;0.40;;;;;;;7.45;100.00;98227.19;5038830;28;20096;-59
2024/03/01 08:34:57;;;;;;;0.38;0.38;;;;;;;7.31;100.00;98233.94;5038837;28;20057;-59
2024/03/01 08:37:24;;;;;;;0.30;0.30;;;;;;;7.41;100.00;98241.25;5032116;28;20065;-58
2024/03/01 08:39:53;;;;;;;0.25;0.25;;;;;;;7.39;100.00;98238.84;5029654;28;20144;-59
2024/03/01 08:42:21;;;;;;;0.25;0.25;;;;;;;7.41;100.00;98241.25;5040684;28;20052;-58
2024/03/01 08:44:54;;;;;;;0.30;0.30;;;;;;;7.54;100.00;98231.06;5036309;28;20057;-59
2024/03/01 08:47:25;;;;;;;0.40;0.40;;;;;;;7.33;100.00;98231.81;5036690;28;20116;-59
2024/03/01 08:50:34;;;;;;;0.43;0.43;;;;;;;7.63;100.00;98235.97;5031638;28;20410;-58
2024/03/01 08:53:01;;;;;;;0.30;0.30;;;;;;;8.25;100.00;98237.47;5037378;28;20047;-59
2024/03/01 08:55:50;;;;;;;0.40;0.40;;;;;;;8.21;100.00;98243.31;5036141;28;20045;-59
2024/03/01 08:58:24;;;;;;;0.40;0.40;;;;;;;8.40;100.00;98233.13;5033899;28;20073;-60
2024/03/01 09:00:53;;;;;;;0.30;0.30;;;;;;;8.36;100.00;98234.66;5036877;28;20123;-60
2024/03/01 09:03:23;;;;;;;0.30;0.30;;;;;;;8.33;100.00;98250.38;5040639;28;20046;-59
2024/03/01 09:05:51;;;;;;;0.28;0.28;;;;;;;8.12;100.00;98241.34;5032981;28;20045;-58
2024/03/01 09:08:20;;;;;;;0.30;0.30;;;;;;;8.18;100.00;98251.00;5034675;28;20138;-60
2024/03/01 09:10:47;;;;;;;0.30;0.30;;;;;;;8.25;100.00;98251.63;5031846;28;20096;-59
2024/03/01 09:13:15;;;;;;;0.30;0.30;;;;;;;8.24;100.00;98247.34;5033241;28;20045;-58
2024/03/01 09:15:45;;;;;;;0.30;0.30;;;;;;;8.45;100.00;98245.72;5038561;28;20545;-59
2024/03/01 09:18:43;;;;;;;0.30;0.30;;;;;;;8.47;100.00;98248.16;5031517;28;20498;-57
2024/03/01 09:21:46;;;;;;;0.20;0.20;;;;;;;8.76;100.00;98249.50;5035587;28;20045;-59
2024/03/01 09:24:15;;;;;;;0.30;0.30;;;;;;;8.56;100.00;98250.13;5031488;28;20053;-59
2024/03/01 09:26:42;;;;;;;0.40;0.40;;;;;;;8.25;100.00;98264.97;5034296;28;20037;-59
2024/03/01 09:29:14;;;;;;;0.30;0.30;;;;;;;8.36;100.00;98260.53;5031090;28;20392;-59
2024/03/01 09:31:42;;;;;;;0.30;0.30;;;;;;;8.42;100.00;98257.72;5035876;28;20056;-59
2024/03/01 09:34:15;;;;;;;0.38;0.38;;;;;;;8.12;100.00;98258.16;5030275;28;20452;-58
2024/03/01 09:36:42;;;;;;;0.30;0.30;;;;;;;8.30;100.00;98257.03;5037587;28;20056;-58
2024/03/01 09:39:11;;;;;;;0.25;0.25;;;;;;;8.14;100.00;98257.94;5031230;28;20045;-59
2024/03/01 09:41:44;;;;;;;0.30;0.30;;;;;;;8.23;100.00;98261.75;5033371;28;20133;-58
2024/03/01 09:44:17;;;;;;;0.30;0.30;;;;;;;8.36;100.00;98272.03;5031298;28;20053;-59
2024/03/01 09:46:54;;;;;;;0.30;0.30;;;;;;;8.23;100.00;98280.44;5040305;28;20044;-59
2024/03/01 09:49:25;;;;;;;0.30;0.30;;;;;;;8.03;100.00;98289.00;5031825;28;20454;-59
2024/03/01 09:52:01;;;;;;;0.30;0.30;;;;;;;7.66;100.00;98288.78;5032762;28;20053;-58
2024/03/01 09:54:30;;;;;;;0.30;0.30;;;;;;;7.80;100.00;98294.59;5027185;28;20051;-58
2024/03/01 09:57:10;;;;;;;0.20;0.20;;;;;;;7.64;100.00;98293.56;5035621;28;20472;-58
2024/03/01 09:59:42;;;;;;;0.30;0.30;;;;;;;7.64;100.00;98305.06;5033982;28;20696;-59
2024/03/01 10:02:25;;;;;;;0.30;0.30;;;;;;;7.69;100.00;98302.47;5029130;28;20381;-59
2024/03/01 10:04:59;;;;;;;0.30;0.30;;;;;;;7.41;100.00;98298.03;5028829;28;20072;-59
2024/03/01 10:07:27;;;;;;;0.30;0.30;;;;;;;7.18;100.00;98298.25;5030748;28;20068;-57
2024/03/01 10:10:19;;;;;;;0.32;0.32;;;;;;;7.26;100.00;98308.47;5032896;28;20049;-59
2024/03/01 10:12:48;;;;;;;0.30;0.30;;;;;;;7.02;100.00;98305.19;5033863;28;20053;-58
2024/03/01 10:15:20;;;;;;;0.40;0.40;;;;;;;7.18;100.00;98308.91;5031601;28;20041;-59
2024/03/01 10:18:01;;;;;;;0.40;0.40;;;;;;;7.10;100.00;98313.56;5028292;28;20044;-59
2024/03/01 10:20:31;;;;;;;0.40;0.40;;;;;;;7.31;100.00;98312.06;5028730;28;20112;-58
2024/03/01 10:23:07;;;;;;;0.30;0.30;;;;;;;7.33;100.00;98312.59;5031350;28;20141;-59
2024/03/01 10:25:41;;;;;;;0.30;0.30;;;;;;;7.24;100.00;98307.91;5033748;28;20522;-58
2024/03/01 10:28:17;;;;;;;0.30;0.30;;;;;;;7.22;100.00;98305.50;5030411;28;20114;-59
2024/03/01 10:30:47;;;;;;;0.40;0.40;;;;;;;7.33;100.00;98303.81;5027615;28;20119;-59
2024/03/01 10:33:21;;;;;;;0.30;0.30;;;;;;;7.43;100.00;98311.94;5026166;28;20041;-58
2024/03/01 10:36:02;;;;;;;0.40;0.40;;;;;;;7.45;98.89;98304.50;5035689;28;20061;-58
2024/03/01 10:38:31;;;;;;;0.30;0.30;;;;;;;7.43;97.75;98314.63;5039466;28;20048;-58
2024/03/01 10:41:03;;;;;;;0.40;0.40;;;;;;;7.33;97.77;98322.47;5027633;28;20048;-59
2024/03/01 10:43:36;;;;;;;0.30;0.30;;;;;;;7.24;97.04;98305.25;5030851;28;20989;-59
2024/03/01 10:46:07;;;;;;;0.30;0.30;;;;;;;7.31;97.11;98306.72;5030380;28;20041;-58
2024/03/01 10:48:39;;;;;;;0.25;0.25;;;;;;;7.32;98.03;98308.34;5032969;28;20099;-59
2024/03/01 10:51:06;;;;;;;0.30;0.30;;;;;;;7.17;97.52;98301.97;5032688;28;20052;-59
2024/03/01 10:53:35;;;;;;;0.30;0.30;;;;;;;7.25;98.49;98293.56;5030400;28;20127;-59
2024/03/01 10:56:04;;;;;;;0.40;0.40;;;;;;;7.59;96.53;98291.66;5033486;28;20099;-58
2024/03/01 10:58:35;;;;;;;0.40;0.40;;;;;;;7.72;95.28;98295.84;5031909;28;20053;-60
2024/03/01 11:01:08;;;;;;;0.38;0.38;;;;;;;7.61;95.96;98294.88;5031021;28;20655;-58
2024/03/01 11:03:39;;;;;;;0.30;0.30;;;;;;;7.85;94.28;98298.13;5031710;28;20064;-58
2024/03/01 11:06:13;;;;;;;0.30;0.30;;;;;;;7.80;93.99;98295.41;5032899;28;20045;-59
2024/03/01 11:08:48;;;;;;;0.30;0.30;;;;;;;7.65;94.84;98297.88;5031228;28;20107;-60
2024/03/01 11:11:17;;;;;;;0.30;0.30;;;;;;;7.51;94.86;98300.88;5029908;28;20048;-60
2024/03/01 11:13:45;;;;;;;0.40;0.40;;;;;;;7.91;92.70;98289.16;5032997;28;20080;-59
2024/03/01 11:16:15;;;;;;;0.30;0.30;;;;;;;7.76;90.31;98294.25;5027700;28;20528;-59
2024/03/01 11:18:47;;;;;;;0.40;0.40;;;;;;;7.51;91.71;98298.22;5036082;28;20547;-59
2024/03/01 11:21:16;;;;;;;0.20;0.20;;;;;;;7.54;88.87;98289.72;5043298;28;20107;-59
2024/03/01 11:23:46;;;;;;;0.40;0.40;;;;;;;7.78;89.95;98284.16;5037430;28;20482;-59
2024/03/01 11:26:17;;;;;;;0.40;0.40;;;;;;;8.08;87.40;98282.94;5034416;28;20047;-59
2024/03/01 11:28:46;;;;;;;0.40;0.40;;;;;;;8.19;86.19;98279.34;5036401;28;20316;-60
2024/03/01 11:31:14;;;;;;;0.30;0.30;;;;;;;8.18;86.72;98283.03;5033965;28;20079;-58
2024/03/01 11:33:42;;;;;;;0.40;0.40;;;;;;;8.46;84.58;98281.22;5041758;28;20065;-57
2024/03/01 11:36:23;;;;;;;0.30;0.30;;;;;;;8.63;84.37;98280.06;5039672;28;20041;-60
2024/03/01 11:38:55;;;;;;;0.40;0.40;;;;;;;8.64;82.90;98279.03;5034281;28;20041;-60
2024/03/01 11:41:26;;;;;;;0.20;0.20;;;;;;;8.72;83.19;98275.09;5036107;28;20545;-59